WXM80 ListenWXM80 Stop

You find our weather info also at:

UK Metoffice

WeatherCloud

Weather Underground

Northeastern Weather Network

AWEKAS

Citizen Weather Observer Program (CWOP)

HAMweather, WeatherForYou, PWS Weather


Weather Underground History page Text

Daily Summary for February 19, 2017 Units:  Both    English   Metric
« Previous Day
Next Day »
Daily Weekly Monthly Yearly Custom
  High: Low: Average:
Temperature: 63.6 °F /  17.6 °C 45.5 °F /  7.5 °C 56.2 °F /  13.4 °C
Dew Point: 43.2 °F /  6.2 °C 32.6 °F /  0.3 °C 37.4 °F /  3 °C
Humidity: 65 % 40 % 50 %
Wind Speed: 8.0 mph /  12.9 km/h - 3.4 mph /  5.5 km/h
Wind Gust: 15.0 mph /  24.1 km/h - -
Wind:- - WSW
Pressure: 29.94 in /  1013.8 hPa 29.60 in /  1002.3 hPa -
Precipitation: 0.00 in /  0 mm    
Historical Graphs
 
 
Tabular Data for February 19, 2017
Time Temperature Dew Point Pressure Wind Wind Speed Wind Gust Humidity Rainfall Rate (Hourly)
00:03 56.1 °F /  13.4 °C 37.2 °F /  2.9 °C 29.60 in /  1002.3 hPa WSW 6.5 mph /  10.5 km/h 6.5 mph /  10.5 km/h 49 % 0.00 in /  0 mm
00:08 56.2 °F /  13.4 °C 37.3 °F /  2.9 °C 29.60 in /  1002.3 hPa SW 3.9 mph /  6.3 km/h 9.2 mph /  14.8 km/h 49 % 0.00 in /  0 mm
00:13 56.3 °F /  13.5 °C 37.4 °F /  3 °C 29.61 in /  1002.6 hPa WSW 5.8 mph /  9.3 km/h 8.1 mph /  13 km/h 49 % 0.00 in /  0 mm
00:18 56.3 °F /  13.5 °C 36.8 °F /  2.7 °C 29.61 in /  1002.6 hPa SW 6.2 mph /  10 km/h 9.2 mph /  14.8 km/h 48 % 0.00 in /  0 mm
00:23 56.5 °F /  13.6 °C 37.0 °F /  2.8 °C 29.61 in /  1002.6 hPa SW 4.5 mph /  7.2 km/h 6.9 mph /  11.1 km/h 48 % 0.00 in /  0 mm
00:28 56.6 °F /  13.7 °C 37.1 °F /  2.8 °C 29.61 in /  1002.6 hPa SW 5.2 mph /  8.4 km/h 8.0 mph /  12.9 km/h 48 % 0.00 in /  0 mm
00:33 56.6 °F /  13.7 °C 37.1 °F /  2.8 °C 29.61 in /  1002.6 hPa SW 6.0 mph /  9.7 km/h 8.1 mph /  13 km/h 48 % 0.00 in /  0 mm
00:39 56.7 °F /  13.7 °C 37.2 °F /  2.9 °C 29.61 in /  1002.6 hPa South 4.1 mph /  6.6 km/h 7.0 mph /  11.3 km/h 48 % 0.00 in /  0 mm
00:44 56.7 °F /  13.7 °C 37.2 °F /  2.9 °C 29.61 in /  1002.6 hPa WSW 4.6 mph /  7.4 km/h 9.2 mph /  14.8 km/h 48 % 0.00 in /  0 mm
00:49 56.7 °F /  13.7 °C 37.2 °F /  2.9 °C 29.60 in /  1002.3 hPa SSW 4.2 mph /  6.8 km/h 6.0 mph /  9.7 km/h 48 % 0.00 in /  0 mm
00:54 56.7 °F /  13.7 °C 37.2 °F /  2.9 °C 29.61 in /  1002.6 hPa SW 4.6 mph /  7.4 km/h 8.1 mph /  13 km/h 48 % 0.00 in /  0 mm
00:59 56.6 °F /  13.7 °C 37.1 °F /  2.8 °C 29.61 in /  1002.6 hPa SSW 6.4 mph /  10.3 km/h 8.1 mph /  13 km/h 48 % 0.00 in /  0 mm
01:04 56.6 °F /  13.7 °C 37.1 °F /  2.8 °C 29.61 in /  1002.6 hPa WSW 4.8 mph /  7.7 km/h 11.5 mph /  18.5 km/h 48 % 0.00 in /  0 mm
01:09 56.7 °F /  13.7 °C 37.2 °F /  2.9 °C 29.61 in /  1002.6 hPa WSW 5.3 mph /  8.5 km/h 10.4 mph /  16.7 km/h 48 % 0.00 in /  0 mm
01:14 56.8 °F /  13.8 °C 37.3 °F /  2.9 °C 29.61 in /  1002.6 hPa WSW 5.4 mph /  8.7 km/h 11.5 mph /  18.5 km/h 48 % 0.00 in /  0 mm
01:19 57.0 °F /  13.9 °C 37.0 °F /  2.8 °C 29.62 in /  1002.9 hPa WSW 4.9 mph /  7.9 km/h 9.2 mph /  14.8 km/h 47 % 0.00 in /  0 mm
01:24 57.2 °F /  14 °C 37.1 °F /  2.8 °C 29.62 in /  1002.9 hPa West 6.3 mph /  10.1 km/h 9.2 mph /  14.8 km/h 47 % 0.00 in /  0 mm
01:29 57.4 °F /  14.1 °C 37.3 °F /  2.9 °C 29.62 in /  1002.9 hPa WNW 5.2 mph /  8.4 km/h 10.4 mph /  16.7 km/h 47 % 0.00 in /  0 mm
01:34 57.5 °F /  14.2 °C 37.4 °F /  3 °C 29.62 in /  1002.9 hPa WSW 3.9 mph /  6.3 km/h 13.8 mph /  22.2 km/h 47 % 0.00 in /  0 mm
01:39 57.4 °F /  14.1 °C 37.3 °F /  2.9 °C 29.62 in /  1002.9 hPa WSW 3.9 mph /  6.3 km/h 10.4 mph /  16.7 km/h 47 % 0.00 in /  0 mm
01:44 57.4 °F /  14.1 °C 37.3 °F /  2.9 °C 29.63 in /  1003.3 hPa SW 1.5 mph /  2.4 km/h 6.0 mph /  9.7 km/h 47 % 0.00 in /  0 mm
01:49 57.3 °F /  14.1 °C 37.2 °F /  2.9 °C 29.63 in /  1003.3 hPa West 2.1 mph /  3.4 km/h 11.5 mph /  18.5 km/h 47 % 0.00 in /  0 mm
02:04 56.7 °F /  13.7 °C 37.2 °F /  2.9 °C 29.64 in /  1003.6 hPa WSW 3.4 mph /  5.5 km/h 6.9 mph /  11.1 km/h 48 % 0.00 in /  0 mm
02:09 56.5 °F /  13.6 °C 37.0 °F /  2.8 °C 29.64 in /  1003.6 hPa WSW 5.7 mph /  9.2 km/h 9.2 mph /  14.8 km/h 48 % 0.00 in /  0 mm
02:14 56.3 °F /  13.5 °C 36.8 °F /  2.7 °C 29.63 in /  1003.3 hPa WSW 0.6 mph /  1 km/h 4.6 mph /  7.4 km/h 48 % 0.00 in /  0 mm
02:19 56.2 °F /  13.4 °C 37.3 °F /  2.9 °C 29.63 in /  1003.3 hPa SSW 4.4 mph /  7.1 km/h 8.1 mph /  13 km/h 49 % 0.00 in /  0 mm
02:24 56.2 °F /  13.4 °C 37.3 °F /  2.9 °C 29.63 in /  1003.3 hPa WSW 3.0 mph /  4.8 km/h 6.9 mph /  11.1 km/h 49 % 0.00 in /  0 mm
02:30 56.2 °F /  13.4 °C 37.3 °F /  2.9 °C 29.63 in /  1003.3 hPa SSW 4.5 mph /  7.2 km/h 8.1 mph /  13 km/h 49 % 0.00 in /  0 mm
02:35 56.2 °F /  13.4 °C 37.3 °F /  2.9 °C 29.64 in /  1003.6 hPa WSW 3.3 mph /  5.3 km/h 4.0 mph /  6.4 km/h 49 % 0.00 in /  0 mm
02:40 56.0 °F /  13.3 °C 37.1 °F /  2.8 °C 29.63 in /  1003.3 hPa WSW 3.8 mph /  6.1 km/h 6.9 mph /  11.1 km/h 49 % 0.00 in /  0 mm
02:45 55.7 °F /  13.2 °C 36.8 °F /  2.7 °C 29.64 in /  1003.6 hPa WSW 3.9 mph /  6.3 km/h 6.9 mph /  11.1 km/h 49 % 0.00 in /  0 mm
02:50 55.5 °F /  13.1 °C 37.1 °F /  2.8 °C 29.64 in /  1003.6 hPa SW 3.4 mph /  5.5 km/h 4.6 mph /  7.4 km/h 50 % 0.00 in /  0 mm
02:55 55.1 °F /  12.8 °C 37.3 °F /  2.9 °C 29.64 in /  1003.6 hPa SW 4.3 mph /  6.9 km/h 8.1 mph /  13 km/h 51 % 0.00 in /  0 mm
03:00 54.9 °F /  12.7 °C 37.1 °F /  2.8 °C 29.64 in /  1003.6 hPa SW 2.5 mph /  4 km/h 3.5 mph /  5.6 km/h 51 % 0.00 in /  0 mm
03:05 54.7 °F /  12.6 °C 36.9 °F /  2.7 °C 29.65 in /  1003.9 hPa SW 1.3 mph /  2.1 km/h 5.8 mph /  9.3 km/h 51 % 0.00 in /  0 mm
03:10 54.4 °F /  12.4 °C 37.1 °F /  2.8 °C 29.65 in /  1003.9 hPa WSW 2.6 mph /  4.2 km/h 3.5 mph /  5.6 km/h 52 % 0.00 in /  0 mm
03:15 54.1 °F /  12.3 °C 37.3 °F /  2.9 °C 29.65 in /  1003.9 hPa WSW 2.7 mph /  4.3 km/h 5.8 mph /  9.3 km/h 53 % 0.00 in /  0 mm
03:20 53.9 °F /  12.2 °C 37.1 °F /  2.8 °C 29.65 in /  1003.9 hPa WSW 2.5 mph /  4 km/h 6.0 mph /  9.7 km/h 53 % 0.00 in /  0 mm
03:25 53.6 °F /  12 °C 36.9 °F /  2.7 °C 29.66 in /  1004.3 hPa SW 3.1 mph /  5 km/h 4.0 mph /  6.4 km/h 53 % 0.00 in /  0 mm
03:30 53.4 °F /  11.9 °C 37.2 °F /  2.9 °C 29.66 in /  1004.3 hPa WSW 3.0 mph /  4.8 km/h 4.6 mph /  7.4 km/h 54 % 0.00 in /  0 mm
03:35 53.2 °F /  11.8 °C 37.0 °F /  2.8 °C 29.66 in /  1004.3 hPa SW 4.3 mph /  6.9 km/h 6.9 mph /  11.1 km/h 54 % 0.00 in /  0 mm
03:40 53.2 °F /  11.8 °C 37.0 °F /  2.8 °C 29.66 in /  1004.3 hPa WSW 4.3 mph /  6.9 km/h 6.9 mph /  11.1 km/h 54 % 0.00 in /  0 mm
03:45 53.2 °F /  11.8 °C 37.0 °F /  2.8 °C 29.66 in /  1004.3 hPa WSW 3.2 mph /  5.1 km/h 6.9 mph /  11.1 km/h 54 % 0.00 in /  0 mm
03:50 53.2 °F /  11.8 °C 37.0 °F /  2.8 °C 29.67 in /  1004.6 hPa SW 3.7 mph /  6 km/h 6.0 mph /  9.7 km/h 54 % 0.00 in /  0 mm
03:55 53.3 °F /  11.8 °C 37.1 °F /  2.8 °C 29.67 in /  1004.6 hPa WSW 2.7 mph /  4.3 km/h 4.0 mph /  6.4 km/h 54 % 0.00 in /  0 mm
04:00 53.4 °F /  11.9 °C 37.2 °F /  2.9 °C 29.67 in /  1004.6 hPa SSW 4.5 mph /  7.2 km/h 6.0 mph /  9.7 km/h 54 % 0.00 in /  0 mm
04:05 53.4 °F /  11.9 °C 37.2 °F /  2.9 °C 29.67 in /  1004.6 hPa WNW 2.9 mph /  4.7 km/h 4.6 mph /  7.4 km/h 54 % 0.00 in /  0 mm
04:10 53.5 °F /  11.9 °C 37.3 °F /  2.9 °C 29.67 in /  1004.6 hPa SW 4.0 mph /  6.4 km/h 5.8 mph /  9.3 km/h 54 % 0.00 in /  0 mm
04:15 53.5 °F /  11.9 °C 37.3 °F /  2.9 °C 29.67 in /  1004.6 hPa WSW 1.7 mph /  2.7 km/h 5.0 mph /  8 km/h 54 % 0.00 in /  0 mm
04:21 53.6 °F /  12 °C 37.3 °F /  2.9 °C 29.67 in /  1004.6 hPa SSW 3.1 mph /  5 km/h 4.6 mph /  7.4 km/h 54 % 0.00 in /  0 mm
04:26 53.5 °F /  11.9 °C 37.3 °F /  2.9 °C 29.67 in /  1004.6 hPa SW 2.9 mph /  4.7 km/h 4.6 mph /  7.4 km/h 54 % 0.00 in /  0 mm
04:31 53.5 °F /  11.9 °C 37.3 °F /  2.9 °C 29.67 in /  1004.6 hPa SSW 3.1 mph /  5 km/h 6.9 mph /  11.1 km/h 54 % 0.00 in /  0 mm
04:36 53.4 °F /  11.9 °C 37.2 °F /  2.9 °C 29.67 in /  1004.6 hPa SW 2.9 mph /  4.7 km/h 5.0 mph /  8 km/h 54 % 0.00 in /  0 mm
04:41 53.3 °F /  11.8 °C 37.1 °F /  2.8 °C 29.67 in /  1004.6 hPa SW 2.4 mph /  3.9 km/h 4.6 mph /  7.4 km/h 54 % 0.00 in /  0 mm
04:46 53.1 °F /  11.7 °C 36.9 °F /  2.7 °C 29.68 in /  1005 hPa SW 1.5 mph /  2.4 km/h 3.5 mph /  5.6 km/h 54 % 0.00 in /  0 mm
04:51 52.9 °F /  11.6 °C 37.2 °F /  2.9 °C 29.68 in /  1005 hPa SW 2.3 mph /  3.7 km/h 3.5 mph /  5.6 km/h 55 % 0.00 in /  0 mm
04:56 52.7 °F /  11.5 °C 37.0 °F /  2.8 °C 29.68 in /  1005 hPa SW 2.1 mph /  3.4 km/h 4.0 mph /  6.4 km/h 55 % 0.00 in /  0 mm
05:01 52.6 °F /  11.4 °C 36.9 °F /  2.7 °C 29.68 in /  1005 hPa SW 2.9 mph /  4.7 km/h 5.8 mph /  9.3 km/h 55 % 0.00 in /  0 mm
05:06 52.4 °F /  11.3 °C 37.2 °F /  2.9 °C 29.68 in /  1005 hPa SW 2.9 mph /  4.7 km/h 4.0 mph /  6.4 km/h 56 % 0.00 in /  0 mm
05:11 52.3 °F /  11.3 °C 37.1 °F /  2.8 °C 29.69 in /  1005.3 hPa SSW 2.8 mph /  4.5 km/h 4.6 mph /  7.4 km/h 56 % 0.00 in /  0 mm
05:16 52.3 °F /  11.3 °C 37.1 °F /  2.8 °C 29.68 in /  1005 hPa WSW 3.5 mph /  5.6 km/h 4.6 mph /  7.4 km/h 56 % 0.00 in /  0 mm
05:21 52.3 °F /  11.3 °C 37.1 °F /  2.8 °C 29.69 in /  1005.3 hPa WSW 2.1 mph /  3.4 km/h 5.0 mph /  8 km/h 56 % 0.00 in /  0 mm
05:26 52.3 °F /  11.3 °C 37.5 °F /  3.1 °C 29.69 in /  1005.3 hPa WSW 3.1 mph /  5 km/h 3.5 mph /  5.6 km/h 57 % 0.00 in /  0 mm
05:31 52.3 °F /  11.3 °C 37.5 °F /  3.1 °C 29.69 in /  1005.3 hPa WSW 3.3 mph /  5.3 km/h 6.0 mph /  9.7 km/h 57 % 0.00 in /  0 mm
05:36 52.3 °F /  11.3 °C 37.5 °F /  3.1 °C 29.69 in /  1005.3 hPa SW 2.7 mph /  4.3 km/h 5.8 mph /  9.3 km/h 57 % 0.00 in /  0 mm
05:41 52.3 °F /  11.3 °C 37.5 °F /  3.1 °C 29.69 in /  1005.3 hPa WSW 2.4 mph /  3.9 km/h 3.5 mph /  5.6 km/h 57 % 0.00 in /  0 mm
05:46 52.4 °F /  11.3 °C 37.6 °F /  3.1 °C 29.69 in /  1005.3 hPa SSW 3.6 mph /  5.8 km/h 8.1 mph /  13 km/h 57 % 0.00 in /  0 mm
05:51 52.4 °F /  11.3 °C 37.6 °F /  3.1 °C 29.69 in /  1005.3 hPa West 2.8 mph /  4.5 km/h 9.0 mph /  14.5 km/h 57 % 0.00 in /  0 mm
05:56 52.4 °F /  11.3 °C 37.6 °F /  3.1 °C 29.69 in /  1005.3 hPa SSW 3.8 mph /  6.1 km/h 5.0 mph /  8 km/h 57 % 0.00 in /  0 mm
06:01 52.4 °F /  11.3 °C 37.6 °F /  3.1 °C 29.69 in /  1005.3 hPa SSW 2.2 mph /  3.5 km/h 8.1 mph /  13 km/h 57 % 0.00 in /  0 mm
06:06 52.5 °F /  11.4 °C 37.7 °F /  3.2 °C 29.69 in /  1005.3 hPa SW 4.1 mph /  6.6 km/h 5.8 mph /  9.3 km/h 57 % 0.00 in /  0 mm
06:11 52.5 °F /  11.4 °C 37.7 °F /  3.2 °C 29.70 in /  1005.6 hPa SW 2.2 mph /  3.5 km/h 3.5 mph /  5.6 km/h 57 % 0.00 in /  0 mm
06:17 52.5 °F /  11.4 °C 37.7 °F /  3.2 °C 29.70 in /  1005.6 hPa SW 2.7 mph /  4.3 km/h 5.8 mph /  9.3 km/h 57 % 0.00 in /  0 mm
06:22 52.5 °F /  11.4 °C 38.1 °F /  3.4 °C 29.70 in /  1005.6 hPa WSW 4.7 mph /  7.6 km/h 6.9 mph /  11.1 km/h 58 % 0.00 in /  0 mm
06:27 52.6 °F /  11.4 °C 38.2 °F /  3.4 °C 29.70 in /  1005.6 hPa WNW 2.8 mph /  4.5 km/h 4.6 mph /  7.4 km/h 58 % 0.00 in /  0 mm
06:32 52.8 °F /  11.6 °C 38.4 °F /  3.6 °C 29.70 in /  1005.6 hPa WSW 4.1 mph /  6.6 km/h 5.8 mph /  9.3 km/h 58 % 0.00 in /  0 mm
06:37 52.9 °F /  11.6 °C 38.5 °F /  3.6 °C 29.70 in /  1005.6 hPa WSW 4.3 mph /  6.9 km/h 5.8 mph /  9.3 km/h 58 % 0.00 in /  0 mm
06:42 53.1 °F /  11.7 °C 38.3 °F /  3.5 °C 29.70 in /  1005.6 hPa WSW 3.8 mph /  6.1 km/h 10.4 mph /  16.7 km/h 57 % 0.00 in /  0 mm
06:47 53.3 °F /  11.8 °C 38.4 °F /  3.6 °C 29.70 in /  1005.6 hPa WSW 4.7 mph /  7.6 km/h 8.1 mph /  13 km/h 57 % 0.00 in /  0 mm
06:52 53.5 °F /  11.9 °C 38.6 °F /  3.7 °C 29.70 in /  1005.6 hPa WSW 4.0 mph /  6.4 km/h 7.0 mph /  11.3 km/h 57 % 0.00 in /  0 mm
06:57 53.7 °F /  12.1 °C 38.8 °F /  3.8 °C 29.71 in /  1006 hPa West 4.9 mph /  7.9 km/h 9.2 mph /  14.8 km/h 57 % 0.00 in /  0 mm
07:02 53.8 °F /  12.1 °C 38.9 °F /  3.8 °C 29.71 in /  1006 hPa SW 3.5 mph /  5.6 km/h 6.0 mph /  9.7 km/h 57 % 0.00 in /  0 mm
07:07 53.9 °F /  12.2 °C 39.0 °F /  3.9 °C 29.71 in /  1006 hPa WSW 4.3 mph /  6.9 km/h 6.9 mph /  11.1 km/h 57 % 0.00 in /  0 mm
07:12 54.0 °F /  12.2 °C 39.1 °F /  3.9 °C 29.72 in /  1006.3 hPa WSW 3.6 mph /  5.8 km/h 4.6 mph /  7.4 km/h 57 % 0.00 in /  0 mm
07:17 54.0 °F /  12.2 °C 39.1 °F /  3.9 °C 29.72 in /  1006.3 hPa SW 3.9 mph /  6.3 km/h 4.6 mph /  7.4 km/h 57 % 0.00 in /  0 mm
07:22 53.9 °F /  12.2 °C 39.0 °F /  3.9 °C 29.72 in /  1006.3 hPa WSW 4.3 mph /  6.9 km/h 8.1 mph /  13 km/h 57 % 0.00 in /  0 mm
07:27 53.8 °F /  12.1 °C 38.9 °F /  3.8 °C 29.72 in /  1006.3 hPa SW 6.7 mph /  10.8 km/h 11.5 mph /  18.5 km/h 57 % 0.00 in /  0 mm
07:32 53.7 °F /  12.1 °C 38.8 °F /  3.8 °C 29.72 in /  1006.3 hPa SW 3.3 mph /  5.3 km/h 9.2 mph /  14.8 km/h 57 % 0.00 in /  0 mm
07:37 53.7 °F /  12.1 °C 39.3 °F /  4.1 °C 29.73 in /  1006.7 hPa WSW 4.0 mph /  6.4 km/h 7.0 mph /  11.3 km/h 58 % 0.00 in /  0 mm
07:42 53.7 °F /  12.1 °C 39.3 °F /  4.1 °C 29.73 in /  1006.7 hPa West 2.3 mph /  3.7 km/h 3.5 mph /  5.6 km/h 58 % 0.00 in /  0 mm
07:47 53.8 °F /  12.1 °C 39.4 °F /  4.1 °C 29.74 in /  1007 hPa WSW 2.7 mph /  4.3 km/h 3.5 mph /  5.6 km/h 58 % 0.00 in /  0 mm
07:52 54.0 °F /  12.2 °C 39.5 °F /  4.2 °C 29.73 in /  1006.7 hPa WSW 4.1 mph /  6.6 km/h 7.0 mph /  11.3 km/h 58 % 0.00 in /  0 mm
07:57 54.1 °F /  12.3 °C 39.6 °F /  4.2 °C 29.74 in /  1007 hPa SW 5.0 mph /  8 km/h 8.1 mph /  13 km/h 58 % 0.00 in /  0 mm
08:02 54.2 °F /  12.3 °C 39.7 °F /  4.3 °C 29.74 in /  1007 hPa SW 2.9 mph /  4.7 km/h 4.6 mph /  7.4 km/h 58 % 0.00 in /  0 mm
08:08 54.2 °F /  12.3 °C 39.7 °F /  4.3 °C 29.74 in /  1007 hPa SW 1.9 mph /  3.1 km/h 6.9 mph /  11.1 km/h 58 % 0.00 in /  0 mm
08:13 54.4 °F /  12.4 °C 39.9 °F /  4.4 °C 29.75 in /  1007.3 hPa SSW 0.9 mph /  1.4 km/h 3.5 mph /  5.6 km/h 58 % 0.00 in /  0 mm
08:18 54.4 °F /  12.4 °C 39.9 °F /  4.4 °C 29.75 in /  1007.3 hPa SW 2.9 mph /  4.7 km/h 3.5 mph /  5.6 km/h 58 % 0.00 in /  0 mm
08:23 54.5 °F /  12.5 °C 39.6 °F /  4.2 °C 29.75 in /  1007.3 hPa WSW 3.5 mph /  5.6 km/h 5.8 mph /  9.3 km/h 57 % 0.00 in /  0 mm
08:28 54.5 °F /  12.5 °C 40.0 °F /  4.4 °C 29.75 in /  1007.3 hPa WSW 3.4 mph /  5.5 km/h 5.0 mph /  8 km/h 58 % 0.00 in /  0 mm
08:33 54.6 °F /  12.6 °C 40.1 °F /  4.5 °C 29.75 in /  1007.3 hPa WSW 2.0 mph /  3.2 km/h 2.3 mph /  3.7 km/h 58 % 0.00 in /  0 mm
08:38 54.7 °F /  12.6 °C 39.8 °F /  4.3 °C 29.76 in /  1007.7 hPa WSW 3.3 mph /  5.3 km/h 8.1 mph /  13 km/h 57 % 0.00 in /  0 mm
08:43 54.8 °F /  12.7 °C 39.8 °F /  4.3 °C 29.76 in /  1007.7 hPa WSW 3.4 mph /  5.5 km/h 8.1 mph /  13 km/h 57 % 0.00 in /  0 mm
08:48 55.0 °F /  12.8 °C 40.0 °F /  4.4 °C 29.76 in /  1007.7 hPa SW 4.2 mph /  6.8 km/h 4.6 mph /  7.4 km/h 57 % 0.00 in /  0 mm
08:58 55.4 °F /  13 °C 40.4 °F /  4.7 °C 29.76 in /  1007.7 hPa WSW 4.5 mph /  7.2 km/h 8.1 mph /  13 km/h 57 % 0.00 in /  0 mm
09:03 55.7 °F /  13.2 °C 40.7 °F /  4.8 °C 29.76 in /  1007.7 hPa West 6.0 mph /  9.7 km/h 12.0 mph /  19.3 km/h 57 % 0.00 in /  0 mm
09:08 55.9 °F /  13.3 °C 40.4 °F /  4.7 °C 29.76 in /  1007.7 hPa WSW 5.0 mph /  8 km/h 8.0 mph /  12.9 km/h 56 % 0.00 in /  0 mm
09:13 56.0 °F /  13.3 °C 40.5 °F /  4.7 °C 29.76 in /  1007.7 hPa WSW 5.0 mph /  8 km/h 8.0 mph /  12.9 km/h 56 % 0.00 in /  0 mm
09:18 56.3 °F /  13.5 °C 41.3 °F /  5.2 °C 29.76 in /  1007.7 hPa WSW 3.0 mph /  4.8 km/h 8.0 mph /  12.9 km/h 57 % 0.00 in /  0 mm
09:23 56.8 °F /  13.8 °C 40.8 °F /  4.9 °C 29.76 in /  1007.7 hPa WSW 6.0 mph /  9.7 km/h 10.0 mph /  16.1 km/h 55 % 0.00 in /  0 mm
09:28 57.2 °F /  14 °C 41.2 °F /  5.1 °C 29.76 in /  1007.7 hPa WSW 5.0 mph /  8 km/h 8.0 mph /  12.9 km/h 55 % 0.00 in /  0 mm
09:33 57.6 °F /  14.2 °C 41.0 °F /  5 °C 29.76 in /  1007.7 hPa WSW 7.0 mph /  11.3 km/h 13.0 mph /  20.9 km/h 54 % 0.00 in /  0 mm
09:38 58.0 °F /  14.4 °C 41.4 °F /  5.2 °C 29.76 in /  1007.7 hPa WSW 8.0 mph /  12.9 km/h 11.5 mph /  18.5 km/h 54 % 0.00 in /  0 mm
09:43 58.4 °F /  14.7 °C 41.8 °F /  5.4 °C 29.76 in /  1007.7 hPa West 5.0 mph /  8 km/h 12.0 mph /  19.3 km/h 54 % 0.00 in /  0 mm
09:48 58.9 °F /  14.9 °C 41.8 °F /  5.4 °C 29.76 in /  1007.7 hPa West 5.0 mph /  8 km/h 13.0 mph /  20.9 km/h 53 % 0.00 in /  0 mm
09:53 59.3 °F /  15.2 °C 42.2 °F /  5.7 °C 29.77 in /  1008 hPa WSW 3.0 mph /  4.8 km/h 10.0 mph /  16.1 km/h 53 % 0.00 in /  0 mm
09:58 59.7 °F /  15.4 °C 42.0 °F /  5.6 °C 29.77 in /  1008 hPa SSW 5.4 mph /  8.7 km/h 9.2 mph /  14.8 km/h 52 % 0.00 in /  0 mm
10:03 59.7 °F /  15.4 °C 42.0 °F /  5.6 °C 29.77 in /  1008 hPa WSW 5.0 mph /  8 km/h 12.0 mph /  19.3 km/h 52 % 0.00 in /  0 mm
10:08 59.9 °F /  15.5 °C 42.2 °F /  5.7 °C 29.77 in /  1008 hPa WSW 6.0 mph /  9.7 km/h 8.0 mph /  12.9 km/h 52 % 0.00 in /  0 mm
10:13 60.1 °F /  15.6 °C 41.9 °F /  5.5 °C 29.77 in /  1008 hPa SW 2.5 mph /  4 km/h 5.8 mph /  9.3 km/h 51 % 0.00 in /  0 mm
10:18 60.3 °F /  15.7 °C 42.6 °F /  5.9 °C 29.77 in /  1008 hPa WSW 6.0 mph /  9.7 km/h 12.0 mph /  19.3 km/h 52 % 0.00 in /  0 mm
10:23 60.6 °F /  15.9 °C 42.3 °F /  5.7 °C 29.77 in /  1008 hPa WSW 3.0 mph /  4.8 km/h 13.0 mph /  20.9 km/h 51 % 0.00 in /  0 mm
10:28 60.7 °F /  15.9 °C 42.5 °F /  5.8 °C 29.76 in /  1007.7 hPa WSW 3.0 mph /  4.8 km/h 8.0 mph /  12.9 km/h 51 % 0.00 in /  0 mm
10:33 60.9 °F /  16.1 °C 43.2 °F /  6.2 °C 29.77 in /  1008 hPa West 2.0 mph /  3.2 km/h 9.0 mph /  14.5 km/h 52 % 0.00 in /  0 mm
10:38 61.2 °F /  16.2 °C 42.4 °F /  5.8 °C 29.77 in /  1008 hPa West 3.0 mph /  4.8 km/h 12.0 mph /  19.3 km/h 50 % 0.00 in /  0 mm
10:39 61.2 °F /  16.2 °C 41.9 °F /  5.5 °C 29.77 in /  1008 hPa WSW 6.6 mph /  10.6 km/h 11.5 mph /  18.5 km/h 49 % 0.00 in /  0 mm
10:44 61.4 °F /  16.3 °C 43.1 °F /  6.2 °C 29.76 in /  1007.7 hPa WSW 2.3 mph /  3.7 km/h 6.9 mph /  11.1 km/h 51 % 0.00 in /  0 mm
10:49 61.8 °F /  16.6 °C 42.4 °F /  5.8 °C 29.77 in /  1008 hPa SW 4.4 mph /  7.1 km/h 8.1 mph /  13 km/h 49 % 0.00 in /  0 mm
10:54 62.0 °F /  16.7 °C 42.6 °F /  5.9 °C 29.77 in /  1008 hPa WSW 1.9 mph /  3.1 km/h 9.2 mph /  14.8 km/h 49 % 0.00 in /  0 mm
10:59 61.7 °F /  16.5 °C 41.8 °F /  5.4 °C 29.77 in /  1008 hPa SW 6.9 mph /  11.1 km/h 9.2 mph /  14.8 km/h 48 % 0.00 in /  0 mm
11:04 61.3 °F /  16.3 °C 41.4 °F /  5.2 °C 29.77 in /  1008 hPa WSW 4.0 mph /  6.4 km/h 6.9 mph /  11.1 km/h 48 % 0.00 in /  0 mm
11:09 61.0 °F /  16.1 °C 41.7 °F /  5.4 °C 29.77 in /  1008 hPa WSW 4.3 mph /  6.9 km/h 8.1 mph /  13 km/h 49 % 0.00 in /  0 mm
11:14 60.8 °F /  16 °C 41.5 °F /  5.3 °C 29.77 in /  1008 hPa WSW 5.6 mph /  9 km/h 8.1 mph /  13 km/h 49 % 0.00 in /  0 mm
11:19 60.5 °F /  15.8 °C 41.2 °F /  5.1 °C 29.77 in /  1008 hPa WNW 3.5 mph /  5.6 km/h 6.9 mph /  11.1 km/h 49 % 0.00 in /  0 mm
11:24 60.6 °F /  15.9 °C 41.8 °F /  5.4 °C 29.77 in /  1008 hPa WSW 4.7 mph /  7.6 km/h 9.0 mph /  14.5 km/h 50 % 0.00 in /  0 mm
11:29 60.7 °F /  15.9 °C 41.4 °F /  5.2 °C 29.77 in /  1008 hPa WSW 3.0 mph /  4.8 km/h 9.2 mph /  14.8 km/h 49 % 0.00 in /  0 mm
11:34 60.6 °F /  15.9 °C 41.3 °F /  5.2 °C 29.77 in /  1008 hPa West 3.9 mph /  6.3 km/h 6.9 mph /  11.1 km/h 49 % 0.00 in /  0 mm
11:39 60.5 °F /  15.8 °C 41.2 °F /  5.1 °C 29.77 in /  1008 hPa West 1.7 mph /  2.7 km/h 3.5 mph /  5.6 km/h 49 % 0.00 in /  0 mm
11:44 60.6 °F /  15.9 °C 41.3 °F /  5.2 °C 29.77 in /  1008 hPa SW 2.9 mph /  4.7 km/h 5.0 mph /  8 km/h 49 % 0.00 in /  0 mm
11:49 60.6 °F /  15.9 °C 41.3 °F /  5.2 °C 29.76 in /  1007.7 hPa SW 4.7 mph /  7.6 km/h 10.4 mph /  16.7 km/h 49 % 0.00 in /  0 mm
11:55 60.7 °F /  15.9 °C 41.4 °F /  5.2 °C 29.76 in /  1007.7 hPa SW 2.0 mph /  3.2 km/h 4.6 mph /  7.4 km/h 49 % 0.00 in /  0 mm
12:00 60.9 °F /  16.1 °C 40.5 °F /  4.7 °C 29.76 in /  1007.7 hPa West 5.1 mph /  8.2 km/h 8.1 mph /  13 km/h 47 % 0.00 in /  0 mm
12:05 60.9 °F /  16.1 °C 40.5 °F /  4.7 °C 29.76 in /  1007.7 hPa WSW 3.1 mph /  5 km/h 4.6 mph /  7.4 km/h 47 % 0.00 in /  0 mm
12:10 61.0 °F /  16.1 °C 40.6 °F /  4.8 °C 29.75 in /  1007.3 hPa West 6.5 mph /  10.5 km/h 12.7 mph /  20.4 km/h 47 % 0.00 in /  0 mm
12:15 61.1 °F /  16.2 °C 40.7 °F /  4.8 °C 29.75 in /  1007.3 hPa WNW 2.4 mph /  3.9 km/h 7.0 mph /  11.3 km/h 47 % 0.00 in /  0 mm
12:20 61.1 °F /  16.2 °C 40.7 °F /  4.8 °C 29.75 in /  1007.3 hPa WNW 0.7 mph /  1.1 km/h 3.5 mph /  5.6 km/h 47 % 0.00 in /  0 mm
12:25 60.9 °F /  16.1 °C 40.5 °F /  4.7 °C 29.75 in /  1007.3 hPa WNW 4.7 mph /  7.6 km/h 9.2 mph /  14.8 km/h 47 % 0.00 in /  0 mm
12:30 60.8 °F /  16 °C 41.0 °F /  5 °C 29.75 in /  1007.3 hPa SW 3.1 mph /  5 km/h 8.0 mph /  12.9 km/h 48 % 0.00 in /  0 mm
12:35 61.0 °F /  16.1 °C 41.2 °F /  5.1 °C 29.75 in /  1007.3 hPa SW 5.8 mph /  9.3 km/h 12.0 mph /  19.3 km/h 48 % 0.00 in /  0 mm
12:40 61.4 °F /  16.3 °C 41.0 °F /  5 °C 29.75 in /  1007.3 hPa WSW 3.1 mph /  5 km/h 8.1 mph /  13 km/h 47 % 0.00 in /  0 mm
12:45 61.8 °F /  16.6 °C 40.8 °F /  4.9 °C 29.75 in /  1007.3 hPa SW 5.2 mph /  8.4 km/h 10.4 mph /  16.7 km/h 46 % 0.00 in /  0 mm
12:50 62.0 °F /  16.7 °C 41.0 °F /  5 °C 29.75 in /  1007.3 hPa West 2.8 mph /  4.5 km/h 8.1 mph /  13 km/h 46 % 0.00 in /  0 mm
12:55 62.2 °F /  16.8 °C 41.2 °F /  5.1 °C 29.75 in /  1007.3 hPa West 4.0 mph /  6.4 km/h 6.0 mph /  9.7 km/h 46 % 0.00 in /  0 mm
13:00 62.5 °F /  16.9 °C 40.9 °F /  4.9 °C 29.75 in /  1007.3 hPa SW 3.9 mph /  6.3 km/h 9.0 mph /  14.5 km/h 45 % 0.00 in /  0 mm
13:05 62.8 °F /  17.1 °C 40.5 °F /  4.7 °C 29.75 in /  1007.3 hPa WSW 5.5 mph /  8.9 km/h 9.0 mph /  14.5 km/h 44 % 0.00 in /  0 mm
13:10 63.0 °F /  17.2 °C 40.7 °F /  4.8 °C 29.75 in /  1007.3 hPa WSW 5.3 mph /  8.5 km/h 11.5 mph /  18.5 km/h 44 % 0.00 in /  0 mm
13:15 63.2 °F /  17.3 °C 40.3 °F /  4.6 °C 29.75 in /  1007.3 hPa SSW 4.5 mph /  7.2 km/h 8.1 mph /  13 km/h 43 % 0.00 in /  0 mm
13:20 63.4 °F /  17.4 °C 39.9 °F /  4.4 °C 29.75 in /  1007.3 hPa West 6.4 mph /  10.3 km/h 11.5 mph /  18.5 km/h 42 % 0.00 in /  0 mm
13:25 63.3 °F /  17.4 °C 39.8 °F /  4.3 °C 29.75 in /  1007.3 hPa West 2.0 mph /  3.2 km/h 8.1 mph /  13 km/h 42 % 0.00 in /  0 mm
13:30 63.0 °F /  17.2 °C 39.5 °F /  4.2 °C 29.75 in /  1007.3 hPa WNW 5.3 mph /  8.5 km/h 8.1 mph /  13 km/h 42 % 0.00 in /  0 mm
13:35 62.9 °F /  17.2 °C 40.0 °F /  4.4 °C 29.75 in /  1007.3 hPa WNW 4.9 mph /  7.9 km/h 6.9 mph /  11.1 km/h 43 % 0.00 in /  0 mm
13:40 62.9 °F /  17.2 °C 40.0 °F /  4.4 °C 29.75 in /  1007.3 hPa West 4.8 mph /  7.7 km/h 9.2 mph /  14.8 km/h 43 % 0.00 in /  0 mm
13:45 63.0 °F /  17.2 °C 40.1 °F /  4.5 °C 29.75 in /  1007.3 hPa West 4.0 mph /  6.4 km/h 8.1 mph /  13 km/h 43 % 0.00 in /  0 mm
13:50 63.2 °F /  17.3 °C 39.1 °F /  3.9 °C 29.75 in /  1007.3 hPa West 7.8 mph /  12.6 km/h 15.0 mph /  24.1 km/h 41 % 0.00 in /  0 mm
13:56 63.3 °F /  17.4 °C 39.2 °F /  4 °C 29.75 in /  1007.3 hPa WNW 7.5 mph /  12.1 km/h 15.0 mph /  24.1 km/h 41 % 0.00 in /  0 mm
14:01 63.4 °F /  17.4 °C 39.3 °F /  4.1 °C 29.75 in /  1007.3 hPa WNW 6.3 mph /  10.1 km/h 10.4 mph /  16.7 km/h 41 % 0.00 in /  0 mm
14:06 63.4 °F /  17.4 °C 39.3 °F /  4.1 °C 29.75 in /  1007.3 hPa West 4.6 mph /  7.4 km/h 10.0 mph /  16.1 km/h 41 % 0.00 in /  0 mm
14:11 63.6 °F /  17.6 °C 39.5 °F /  4.2 °C 29.74 in /  1007 hPa West 5.3 mph /  8.5 km/h 8.1 mph /  13 km/h 41 % 0.00 in /  0 mm
14:16 63.6 °F /  17.6 °C 39.5 °F /  4.2 °C 29.75 in /  1007.3 hPa WNW 5.8 mph /  9.3 km/h 9.2 mph /  14.8 km/h 41 % 0.00 in /  0 mm
14:21 63.6 °F /  17.6 °C 39.5 °F /  4.2 °C 29.75 in /  1007.3 hPa West 7.0 mph /  11.3 km/h 11.5 mph /  18.5 km/h 41 % 0.00 in /  0 mm
14:26 63.5 °F /  17.5 °C 38.7 °F /  3.7 °C 29.75 in /  1007.3 hPa West 5.6 mph /  9 km/h 10.4 mph /  16.7 km/h 40 % 0.00 in /  0 mm
14:31 63.3 °F /  17.4 °C 38.6 °F /  3.7 °C 29.75 in /  1007.3 hPa WNW 5.7 mph /  9.2 km/h 12.7 mph /  20.4 km/h 40 % 0.00 in /  0 mm
14:36 63.3 °F /  17.4 °C 39.2 °F /  4 °C 29.75 in /  1007.3 hPa NW 7.4 mph /  11.9 km/h 11.5 mph /  18.5 km/h 41 % 0.00 in /  0 mm
14:41 63.2 °F /  17.3 °C 39.1 °F /  3.9 °C 29.75 in /  1007.3 hPa WNW 6.1 mph /  9.8 km/h 9.2 mph /  14.8 km/h 41 % 0.00 in /  0 mm
14:46 63.1 °F /  17.3 °C 39.0 °F /  3.9 °C 29.75 in /  1007.3 hPa NW 2.7 mph /  4.3 km/h 6.9 mph /  11.1 km/h 41 % 0.00 in /  0 mm
14:51 63.0 °F /  17.2 °C 38.3 °F /  3.5 °C 29.75 in /  1007.3 hPa West 6.1 mph /  9.8 km/h 8.1 mph /  13 km/h 40 % 0.00 in /  0 mm
14:56 62.7 °F /  17.1 °C 38.6 °F /  3.7 °C 29.75 in /  1007.3 hPa WSW 5.6 mph /  9 km/h 11.5 mph /  18.5 km/h 41 % 0.00 in /  0 mm
15:01 62.6 °F /  17 °C 39.2 °F /  4 °C 29.75 in /  1007.3 hPa WSW 4.0 mph /  6.4 km/h 5.8 mph /  9.3 km/h 42 % 0.00 in /  0 mm
15:06 62.5 °F /  16.9 °C 38.5 °F /  3.6 °C 29.76 in /  1007.7 hPa West 5.4 mph /  8.7 km/h 10.0 mph /  16.1 km/h 41 % 0.00 in /  0 mm
15:11 62.5 °F /  16.9 °C 38.5 °F /  3.6 °C 29.76 in /  1007.7 hPa WNW 1.0 mph /  1.6 km/h 4.6 mph /  7.4 km/h 41 % 0.00 in /  0 mm
15:16 62.5 °F /  16.9 °C 39.1 °F /  3.9 °C 29.76 in /  1007.7 hPa WSW 2.7 mph /  4.3 km/h 3.5 mph /  5.6 km/h 42 % 0.00 in /  0 mm
15:26 62.4 °F /  16.9 °C 38.4 °F /  3.6 °C 29.76 in /  1007.7 hPa NW 2.5 mph /  4 km/h 4.6 mph /  7.4 km/h 41 % 0.00 in /  0 mm
15:31 62.3 °F /  16.8 °C 38.3 °F /  3.5 °C 29.76 in /  1007.7 hPa WNW 2.4 mph /  3.9 km/h 9.2 mph /  14.8 km/h 41 % 0.00 in /  0 mm
15:36 62.2 °F /  16.8 °C 37.6 °F /  3.1 °C 29.77 in /  1008 hPa WNW 4.9 mph /  7.9 km/h 6.9 mph /  11.1 km/h 40 % 0.00 in /  0 mm
15:46 61.9 °F /  16.6 °C 37.9 °F /  3.3 °C 29.77 in /  1008 hPa West 1.9 mph /  3.1 km/h 3.5 mph /  5.6 km/h 41 % 0.00 in /  0 mm
15:51 61.8 °F /  16.6 °C 37.8 °F /  3.2 °C 29.77 in /  1008 hPa WSW 6.1 mph /  9.8 km/h 11.5 mph /  18.5 km/h 41 % 0.00 in /  0 mm
15:57 61.7 °F /  16.5 °C 37.7 °F /  3.2 °C 29.77 in /  1008 hPa West 6.8 mph /  10.9 km/h 11.5 mph /  18.5 km/h 41 % 0.00 in /  0 mm
16:02 61.6 °F /  16.4 °C 37.7 °F /  3.2 °C 29.77 in /  1008 hPa NW 3.4 mph /  5.5 km/h 5.0 mph /  8 km/h 41 % 0.00 in /  0 mm
16:07 61.5 °F /  16.4 °C 37.6 °F /  3.1 °C 29.77 in /  1008 hPa WNW 3.7 mph /  6 km/h 5.8 mph /  9.3 km/h 41 % 0.00 in /  0 mm
16:12 61.4 °F /  16.3 °C 37.5 °F /  3.1 °C 29.77 in /  1008 hPa SW 3.1 mph /  5 km/h 4.6 mph /  7.4 km/h 41 % 0.00 in /  0 mm
16:17 61.3 °F /  16.3 °C 37.4 °F /  3 °C 29.78 in /  1008.4 hPa NW 3.6 mph /  5.8 km/h 5.0 mph /  8 km/h 41 % 0.00 in /  0 mm
16:22 61.2 °F /  16.2 °C 37.9 °F /  3.3 °C 29.78 in /  1008.4 hPa SW 2.1 mph /  3.4 km/h 9.0 mph /  14.5 km/h 42 % 0.00 in /  0 mm
16:27 61.1 °F /  16.2 °C 37.8 °F /  3.2 °C 29.78 in /  1008.4 hPa WSW 0.1 mph /  0.2 km/h 3.5 mph /  5.6 km/h 42 % 0.00 in /  0 mm
16:32 60.9 °F /  16.1 °C 37.0 °F /  2.8 °C 29.78 in /  1008.4 hPa West 3.2 mph /  5.1 km/h 5.8 mph /  9.3 km/h 41 % 0.00 in /  0 mm
16:37 60.8 °F /  16 °C 37.5 °F /  3.1 °C 29.78 in /  1008.4 hPa WSW 4.4 mph /  7.1 km/h 11.5 mph /  18.5 km/h 42 % 0.00 in /  0 mm
16:42 60.7 °F /  15.9 °C 37.5 °F /  3.1 °C 29.79 in /  1008.7 hPa WSW 4.2 mph /  6.8 km/h 8.1 mph /  13 km/h 42 % 0.00 in /  0 mm
16:47 60.5 °F /  15.8 °C 37.3 °F /  2.9 °C 29.79 in /  1008.7 hPa WSW 5.0 mph /  8 km/h 6.9 mph /  11.1 km/h 42 % 0.00 in /  0 mm
16:52 60.3 °F /  15.7 °C 37.1 °F /  2.8 °C 29.79 in /  1008.7 hPa WSW 3.8 mph /  6.1 km/h 10.4 mph /  16.7 km/h 42 % 0.00 in /  0 mm
16:57 60.0 °F /  15.6 °C 37.4 °F /  3 °C 29.79 in /  1008.7 hPa West 3.7 mph /  6 km/h 6.9 mph /  11.1 km/h 43 % 0.00 in /  0 mm
17:02 59.8 °F /  15.4 °C 37.2 °F /  2.9 °C 29.80 in /  1009 hPa WSW 1.3 mph /  2.1 km/h 6.9 mph /  11.1 km/h 43 % 0.00 in /  0 mm
17:07 59.6 °F /  15.3 °C 37.1 °F /  2.8 °C 29.80 in /  1009 hPa WSW 3.9 mph /  6.3 km/h 7.0 mph /  11.3 km/h 43 % 0.00 in /  0 mm
17:12 59.4 °F /  15.2 °C 36.9 °F /  2.7 °C 29.80 in /  1009 hPa SW 4.3 mph /  6.9 km/h 9.2 mph /  14.8 km/h 43 % 0.00 in /  0 mm
17:17 59.3 °F /  15.2 °C 36.8 °F /  2.7 °C 29.80 in /  1009 hPa West 0.9 mph /  1.4 km/h 3.5 mph /  5.6 km/h 43 % 0.00 in /  0 mm
17:22 59.1 °F /  15.1 °C 36.6 °F /  2.6 °C 29.81 in /  1009.4 hPa West 4.6 mph /  7.4 km/h 6.9 mph /  11.1 km/h 43 % 0.00 in /  0 mm
17:27 58.9 °F /  14.9 °C 36.4 °F /  2.4 °C 29.81 in /  1009.4 hPa West 5.8 mph /  9.3 km/h 9.2 mph /  14.8 km/h 43 % 0.00 in /  0 mm
17:32 58.7 °F /  14.8 °C 36.2 °F /  2.3 °C 29.81 in /  1009.4 hPa West 1.6 mph /  2.6 km/h 8.1 mph /  13 km/h 43 % 0.00 in /  0 mm
17:37 58.6 °F /  14.8 °C 35.6 °F /  2 °C 29.82 in /  1009.7 hPa West 3.5 mph /  5.6 km/h 7.0 mph /  11.3 km/h 42 % 0.00 in /  0 mm
17:42 58.4 °F /  14.7 °C 35.4 °F /  1.9 °C 29.82 in /  1009.7 hPa WNW 4.6 mph /  7.4 km/h 9.2 mph /  14.8 km/h 42 % 0.00 in /  0 mm
17:47 58.2 °F /  14.6 °C 35.2 °F /  1.8 °C 29.82 in /  1009.7 hPa West 4.8 mph /  7.7 km/h 10.4 mph /  16.7 km/h 42 % 0.00 in /  0 mm
17:52 58.0 °F /  14.4 °C 35.0 °F /  1.7 °C 29.82 in /  1009.7 hPa WNW 3.4 mph /  5.5 km/h 5.8 mph /  9.3 km/h 42 % 0.00 in /  0 mm
17:57 57.9 °F /  14.4 °C 34.9 °F /  1.6 °C 29.83 in /  1010 hPa WSW 3.0 mph /  4.8 km/h 5.8 mph /  9.3 km/h 42 % 0.00 in /  0 mm
18:03 57.7 °F /  14.3 °C 34.7 °F /  1.5 °C 29.83 in /  1010 hPa WSW 2.6 mph /  4.2 km/h 8.1 mph /  13 km/h 42 % 0.00 in /  0 mm
18:08 57.6 °F /  14.2 °C 34.7 °F /  1.5 °C 29.83 in /  1010 hPa WNW 0.8 mph /  1.3 km/h 2.3 mph /  3.7 km/h 42 % 0.00 in /  0 mm
18:13 57.5 °F /  14.2 °C 34.0 °F /  1.1 °C 29.83 in /  1010 hPa West 0.1 mph /  0.2 km/h 3.5 mph /  5.6 km/h 41 % 0.00 in /  0 mm
18:18 57.3 °F /  14.1 °C 34.4 °F /  1.3 °C 29.83 in /  1010 hPa West 1.3 mph /  2.1 km/h 2.3 mph /  3.7 km/h 42 % 0.00 in /  0 mm
18:23 57.0 °F /  13.9 °C 34.1 °F /  1.2 °C 29.83 in /  1010 hPa WSW 1.5 mph /  2.4 km/h 3.0 mph /  4.8 km/h 42 % 0.00 in /  0 mm
18:28 56.9 °F /  13.8 °C 34.0 °F /  1.1 °C 29.83 in /  1010 hPa West 2.2 mph /  3.5 km/h 4.0 mph /  6.4 km/h 42 % 0.00 in /  0 mm
18:33 56.7 °F /  13.7 °C 33.2 °F /  0.7 °C 29.84 in /  1010.4 hPa WNW 3.4 mph /  5.5 km/h 4.6 mph /  7.4 km/h 41 % 0.00 in /  0 mm
18:38 56.6 °F /  13.7 °C 33.8 °F /  1 °C 29.84 in /  1010.4 hPa WNW 1.6 mph /  2.6 km/h 3.0 mph /  4.8 km/h 42 % 0.00 in /  0 mm
18:43 56.4 °F /  13.6 °C 33.6 °F /  0.9 °C 29.85 in /  1010.7 hPa West 5.3 mph /  8.5 km/h 6.9 mph /  11.1 km/h 42 % 0.00 in /  0 mm
18:48 56.3 °F /  13.5 °C 33.5 °F /  0.8 °C 29.84 in /  1010.4 hPa WNW 4.9 mph /  7.9 km/h 6.9 mph /  11.1 km/h 42 % 0.00 in /  0 mm
18:53 56.2 °F /  13.4 °C 33.4 °F /  0.8 °C 29.84 in /  1010.4 hPa West 3.2 mph /  5.1 km/h 6.0 mph /  9.7 km/h 42 % 0.00 in /  0 mm
18:58 56.2 °F /  13.4 °C 33.4 °F /  0.8 °C 29.85 in /  1010.7 hPa WNW 3.8 mph /  6.1 km/h 9.2 mph /  14.8 km/h 42 % 0.00 in /  0 mm
19:03 56.1 °F /  13.4 °C 33.3 °F /  0.7 °C 29.85 in /  1010.7 hPa West 3.6 mph /  5.8 km/h 9.2 mph /  14.8 km/h 42 % 0.00 in /  0 mm
19:08 56.0 °F /  13.3 °C 33.2 °F /  0.7 °C 29.85 in /  1010.7 hPa WNW 3.0 mph /  4.8 km/h 7.0 mph /  11.3 km/h 42 % 0.00 in /  0 mm
19:13 55.9 °F /  13.3 °C 33.7 °F /  0.9 °C 29.85 in /  1010.7 hPa WNW 3.0 mph /  4.8 km/h 7.0 mph /  11.3 km/h 43 % 0.00 in /  0 mm
19:18 55.8 °F /  13.2 °C 33.6 °F /  0.9 °C 29.85 in /  1010.7 hPa WNW 3.0 mph /  4.8 km/h 8.0 mph /  12.9 km/h 43 % 0.00 in /  0 mm
19:23 55.7 °F /  13.2 °C 33.5 °F /  0.8 °C 29.85 in /  1010.7 hPa WNW 2.5 mph /  4 km/h 8.1 mph /  13 km/h 43 % 0.00 in /  0 mm
19:28 55.6 °F /  13.1 °C 33.4 °F /  0.8 °C 29.85 in /  1010.7 hPa WNW 2.0 mph /  3.2 km/h 4.0 mph /  6.4 km/h 43 % 0.00 in /  0 mm
19:33 55.4 °F /  13 °C 33.3 °F /  0.7 °C 29.85 in /  1010.7 hPa West 2.0 mph /  3.2 km/h 5.0 mph /  8 km/h 43 % 0.00 in /  0 mm
19:38 55.3 °F /  12.9 °C 33.2 °F /  0.7 °C 29.85 in /  1010.7 hPa WNW 2.0 mph /  3.2 km/h 5.0 mph /  8 km/h 43 % 0.00 in /  0 mm
19:43 55.1 °F /  12.8 °C 33.0 °F /  0.6 °C 29.85 in /  1010.7 hPa WNW 3.0 mph /  4.8 km/h 6.0 mph /  9.7 km/h 43 % 0.00 in /  0 mm
19:48 55.0 °F /  12.8 °C 32.9 °F /  0.5 °C 29.86 in /  1011.1 hPa WNW 3.0 mph /  4.8 km/h 9.0 mph /  14.5 km/h 43 % 0.00 in /  0 mm
19:53 54.9 °F /  12.7 °C 32.8 °F /  0.4 °C 29.86 in /  1011.1 hPa WNW 1.0 mph /  1.6 km/h 6.0 mph /  9.7 km/h 43 % 0.00 in /  0 mm
19:58 54.8 °F /  12.7 °C 32.7 °F /  0.4 °C 29.86 in /  1011.1 hPa WNW 2.2 mph /  3.5 km/h 5.8 mph /  9.3 km/h 43 % 0.00 in /  0 mm
20:03 54.7 °F /  12.6 °C 33.2 °F /  0.7 °C 29.86 in /  1011.1 hPa West 2.7 mph /  4.3 km/h 4.0 mph /  6.4 km/h 44 % 0.00 in /  0 mm
20:08 54.4 °F /  12.4 °C 32.9 °F /  0.5 °C 29.87 in /  1011.4 hPa WNW 1.5 mph /  2.4 km/h 5.8 mph /  9.3 km/h 44 % 0.00 in /  0 mm
20:13 54.3 °F /  12.4 °C 32.8 °F /  0.4 °C 29.87 in /  1011.4 hPa West 2.2 mph /  3.5 km/h 3.5 mph /  5.6 km/h 44 % 0.00 in /  0 mm
20:18 54.1 °F /  12.3 °C 32.6 °F /  0.3 °C 29.88 in /  1011.7 hPa WSW 2.4 mph /  3.9 km/h 5.0 mph /  8 km/h 44 % 0.00 in /  0 mm
20:23 53.9 °F /  12.2 °C 33.0 °F /  0.6 °C 29.88 in /  1011.7 hPa WNW 2.2 mph /  3.5 km/h 4.6 mph /  7.4 km/h 45 % 0.00 in /  0 mm
20:29 53.7 °F /  12.1 °C 32.8 °F /  0.4 °C 29.88 in /  1011.7 hPa West 2.7 mph /  4.3 km/h 4.6 mph /  7.4 km/h 45 % 0.00 in /  0 mm
20:34 53.5 °F /  11.9 °C 32.7 °F /  0.4 °C 29.89 in /  1012.1 hPa West 2.7 mph /  4.3 km/h 5.0 mph /  8 km/h 45 % 0.00 in /  0 mm
20:39 53.3 °F /  11.8 °C 33.0 °F /  0.6 °C 29.89 in /  1012.1 hPa West 1.7 mph /  2.7 km/h 4.6 mph /  7.4 km/h 46 % 0.00 in /  0 mm
20:44 53.1 °F /  11.7 °C 32.8 °F /  0.4 °C 29.89 in /  1012.1 hPa West 1.5 mph /  2.4 km/h 3.5 mph /  5.6 km/h 46 % 0.00 in /  0 mm
20:49 53.0 °F /  11.7 °C 32.8 °F /  0.4 °C 29.90 in /  1012.4 hPa West 0.9 mph /  1.4 km/h 2.3 mph /  3.7 km/h 46 % 0.00 in /  0 mm
20:54 52.8 °F /  11.6 °C 32.6 °F /  0.3 °C 29.90 in /  1012.4 hPa WNW 1.2 mph /  1.9 km/h 1.2 mph /  1.9 km/h 46 % 0.00 in /  0 mm
20:59 52.6 °F /  11.4 °C 32.9 °F /  0.5 °C 29.90 in /  1012.4 hPa West 1.9 mph /  3.1 km/h 4.6 mph /  7.4 km/h 47 % 0.00 in /  0 mm
21:04 52.4 °F /  11.3 °C 32.7 °F /  0.4 °C 29.91 in /  1012.8 hPa WNW 0.7 mph /  1.1 km/h 2.3 mph /  3.7 km/h 47 % 0.00 in /  0 mm
21:09 52.2 °F /  11.2 °C 33.1 °F /  0.6 °C 29.91 in /  1012.8 hPa WNW 1.4 mph /  2.3 km/h 2.3 mph /  3.7 km/h 48 % 0.00 in /  0 mm
21:14 51.8 °F /  11 °C 33.2 °F /  0.7 °C 29.91 in /  1012.8 hPa SW 1.1 mph /  1.8 km/h 2.3 mph /  3.7 km/h 49 % 0.00 in /  0 mm
21:19 51.4 °F /  10.8 °C 33.4 °F /  0.8 °C 29.91 in /  1012.8 hPa SW 0.8 mph /  1.3 km/h 1.2 mph /  1.9 km/h 50 % 0.00 in /  0 mm
21:24 51.1 °F /  10.6 °C 33.1 °F /  0.6 °C 29.91 in /  1012.8 hPa Calm     50 % 0.00 in /  0 mm
21:29 50.8 °F /  10.4 °C 33.3 °F /  0.7 °C 29.91 in /  1012.8 hPa Calm   1.2 mph /  1.9 km/h 51 % 0.00 in /  0 mm
21:34 50.5 °F /  10.3 °C 33.0 °F /  0.6 °C 29.91 in /  1012.8 hPa SW 0.7 mph /  1.1 km/h 2.3 mph /  3.7 km/h 51 % 0.00 in /  0 mm
21:39 50.1 °F /  10.1 °C 33.1 °F /  0.6 °C 29.91 in /  1012.8 hPa SW 0.5 mph /  0.8 km/h 2.3 mph /  3.7 km/h 52 % 0.00 in /  0 mm
21:44 49.7 °F /  9.8 °C 33.2 °F /  0.7 °C 29.91 in /  1012.8 hPa SW 1.3 mph /  2.1 km/h 3.5 mph /  5.6 km/h 53 % 0.00 in /  0 mm
21:49 49.4 °F /  9.7 °C 33.0 °F /  0.6 °C 29.91 in /  1012.8 hPa Calm     53 % 0.00 in /  0 mm
21:54 49.1 °F /  9.5 °C 33.2 °F /  0.7 °C 29.91 in /  1012.8 hPa SW 0.7 mph /  1.1 km/h 2.0 mph /  3.2 km/h 54 % 0.00 in /  0 mm
21:59 48.8 °F /  9.3 °C 32.9 °F /  0.5 °C 29.91 in /  1012.8 hPa SW 0.3 mph /  0.5 km/h 2.3 mph /  3.7 km/h 54 % 0.00 in /  0 mm
22:04 48.5 °F /  9.2 °C 33.1 °F /  0.6 °C 29.91 in /  1012.8 hPa WSW 1.8 mph /  2.9 km/h 3.5 mph /  5.6 km/h 55 % 0.00 in /  0 mm
22:09 48.2 °F /  9 °C 33.2 °F /  0.7 °C 29.91 in /  1012.8 hPa WSW 1.3 mph /  2.1 km/h 2.3 mph /  3.7 km/h 56 % 0.00 in /  0 mm
22:14 48.0 °F /  8.9 °C 33.0 °F /  0.6 °C 29.91 in /  1012.8 hPa SW 2.4 mph /  3.9 km/h 3.5 mph /  5.6 km/h 56 % 0.00 in /  0 mm
22:20 47.8 °F /  8.8 °C 33.3 °F /  0.7 °C 29.91 in /  1012.8 hPa SW 1.9 mph /  3.1 km/h 3.5 mph /  5.6 km/h 57 % 0.00 in /  0 mm
22:25 47.6 °F /  8.7 °C 33.1 °F /  0.6 °C 29.91 in /  1012.8 hPa SW 0.4 mph /  0.6 km/h 2.3 mph /  3.7 km/h 57 % 0.00 in /  0 mm
22:30 47.3 °F /  8.5 °C 33.3 °F /  0.7 °C 29.91 in /  1012.8 hPa WSW 1.2 mph /  1.9 km/h 3.5 mph /  5.6 km/h 58 % 0.00 in /  0 mm
22:35 47.1 °F /  8.4 °C 33.1 °F /  0.6 °C 29.92 in /  1013.1 hPa West 0.9 mph /  1.4 km/h 3.0 mph /  4.8 km/h 58 % 0.00 in /  0 mm
22:40 47.0 °F /  8.3 °C 33.0 °F /  0.6 °C 29.92 in /  1013.1 hPa West 1.9 mph /  3.1 km/h 3.0 mph /  4.8 km/h 58 % 0.00 in /  0 mm
22:45 47.0 °F /  8.3 °C 33.0 °F /  0.6 °C 29.92 in /  1013.1 hPa WSW 2.5 mph /  4 km/h 3.5 mph /  5.6 km/h 58 % 0.00 in /  0 mm
22:50 47.0 °F /  8.3 °C 33.0 °F /  0.6 °C 29.92 in /  1013.1 hPa WSW 0.6 mph /  1 km/h 1.2 mph /  1.9 km/h 58 % 0.00 in /  0 mm
22:55 47.0 °F /  8.3 °C 33.0 °F /  0.6 °C 29.92 in /  1013.1 hPa WSW 0.4 mph /  0.6 km/h 2.3 mph /  3.7 km/h 58 % 0.00 in /  0 mm
23:00 47.0 °F /  8.3 °C 33.4 °F /  0.8 °C 29.92 in /  1013.1 hPa ENE 1.5 mph /  2.4 km/h 3.5 mph /  5.6 km/h 59 % 0.00 in /  0 mm
23:05 46.9 °F /  8.3 °C 33.3 °F /  0.7 °C 29.92 in /  1013.1 hPa NNW 0.2 mph /  0.3 km/h 3.5 mph /  5.6 km/h 59 % 0.00 in /  0 mm
23:10 46.8 °F /  8.2 °C 33.6 °F /  0.9 °C 29.93 in /  1013.4 hPa NNW 0.6 mph /  1 km/h 1.2 mph /  1.9 km/h 60 % 0.00 in /  0 mm
23:15 46.6 °F /  8.1 °C 34.3 °F /  1.3 °C 29.93 in /  1013.4 hPa NW 2.1 mph /  3.4 km/h 4.6 mph /  7.4 km/h 62 % 0.00 in /  0 mm
23:20 46.5 °F /  8.1 °C 34.2 °F /  1.2 °C 29.93 in /  1013.4 hPa WNW 2.6 mph /  4.2 km/h 3.5 mph /  5.6 km/h 62 % 0.00 in /  0 mm
23:25 46.4 °F /  8 °C 34.5 °F /  1.4 °C 29.94 in /  1013.8 hPa WNW 2.5 mph /  4 km/h 3.5 mph /  5.6 km/h 63 % 0.00 in /  0 mm
23:30 46.3 °F /  7.9 °C 34.4 °F /  1.3 °C 29.94 in /  1013.8 hPa WNW 1.3 mph /  2.1 km/h 3.5 mph /  5.6 km/h 63 % 0.00 in /  0 mm
23:35 46.2 °F /  7.9 °C 34.3 °F /  1.3 °C 29.94 in /  1013.8 hPa WNW 0.7 mph /  1.1 km/h 3.5 mph /  5.6 km/h 63 % 0.00 in /  0 mm
23:40 46.1 °F /  7.8 °C 34.2 °F /  1.2 °C 29.94 in /  1013.8 hPa Calm   3.5 mph /  5.6 km/h 63 % 0.00 in /  0 mm
23:45 46.0 °F /  7.8 °C 34.5 °F /  1.4 °C 29.94 in /  1013.8 hPa WNW 0.4 mph /  0.6 km/h 2.0 mph /  3.2 km/h 64 % 0.00 in /  0 mm
23:50 45.7 °F /  7.6 °C 34.2 °F /  1.2 °C 29.94 in /  1013.8 hPa Calm     64 % 0.00 in /  0 mm
23:55 45.5 °F /  7.5 °C 34.4 °F /  1.3 °C 29.94 in /  1013.8 hPa WNW 0.7 mph /  1.1 km/h 2.3 mph /  3.7 km/h 65 % 0.00 in /  0 mm
Crab Meadow Weather
Compliments of Weather Underground - 3 mb

Script developed by  Jim McMurry - jmcmurry@mwt.net Adapted for the template by  Wim van der Kuil - Leuven-Template.eu

Clouds: Mostly Cloudy or Considerable Cloudiness indicate about 75 percent cloud coverage.